createdAt,value
2022-09-15T00:01:10.500Z,21.83
2022-09-15T00:03:38.903Z,22.63
2022-09-15T00:06:07.001Z,22.50
2022-09-15T00:08:34.753Z,23.85
2022-09-15T00:11:19.814Z,22.55
2022-09-15T00:13:47.605Z,22.90
2022-09-15T00:16:15.837Z,21.70
2022-09-15T00:18:44.875Z,23.23
2022-09-15T00:21:18.391Z,22.77
2022-09-15T00:23:46.284Z,22.15
2022-09-15T00:26:16.990Z,19.92
2022-09-15T00:28:44.590Z,21.65
2022-09-15T00:31:19.798Z,20.33
2022-09-15T00:33:48.749Z,21.58
2022-09-15T00:36:17.290Z,22.65
2022-09-15T00:38:44.980Z,19.30
2022-09-15T00:41:14.405Z,19.38
2022-09-15T00:43:59.646Z,21.15
2022-09-15T00:46:39.720Z,20.00
2022-09-15T00:49:20.068Z,18.73
2022-09-15T00:51:50.026Z,21.02
2022-09-15T00:54:26.831Z,19.02
2022-09-15T00:56:56.813Z,19.35
2022-09-15T00:59:27.621Z,22.38
2022-09-15T01:02:00.943Z,20.15
2022-09-15T01:04:28.413Z,20.42
2022-09-15T01:07:01.567Z,21.42
2022-09-15T01:09:34.744Z,20.13
2022-09-15T01:12:03.410Z,25.35
2022-09-15T01:14:30.901Z,23.98
2022-09-15T01:17:06.933Z,20.55
2022-09-15T01:20:00.137Z,21.20
2022-09-15T01:22:51.266Z,22.10
2022-09-15T01:25:43.514Z,20.80
2022-09-15T01:28:30.161Z,21.35
2022-09-15T01:31:08.044Z,20.13
2022-09-15T01:33:58.014Z,22.02
2022-09-15T01:36:32.576Z,21.15
2022-09-15T01:39:04.029Z,20.08
2022-09-15T01:41:50.231Z,20.30
2022-09-15T01:44:51.507Z,20.55
2022-09-15T01:47:20.970Z,20.10
2022-09-15T01:50:01.261Z,21.17
2022-09-15T01:52:30.661Z,19.65
2022-09-15T01:55:06.791Z,18.95
2022-09-15T01:57:34.270Z,20.52
2022-09-15T02:00:01.879Z,21.48
2022-09-15T02:02:35.457Z,19.13
2022-09-15T02:05:11.261Z,19.60
2022-09-15T02:07:45.029Z,18.83
2022-09-15T02:10:24.476Z,20.60
2022-09-15T02:12:59.876Z,20.67
2022-09-15T02:15:43.616Z,19.35
2022-09-15T02:18:14.724Z,20.88
2022-09-15T02:20:52.291Z,20.77
2022-09-15T02:23:31.391Z,20.17
2022-09-15T02:26:06.481Z,20.35
2022-09-15T02:28:38.552Z,21.55
2022-09-15T02:31:10.178Z,20.27
2022-09-15T02:33:44.166Z,21.83
2022-09-15T02:36:19.762Z,21.27
2022-09-15T02:38:55.045Z,20.58
2022-09-15T02:41:23.714Z,21.60
2022-09-15T02:43:51.028Z,20.40
2022-09-15T02:46:22.727Z,19.42
2022-09-15T02:48:50.302Z,20.38
2022-09-15T02:51:18.810Z,19.73
2022-09-15T02:53:46.323Z,20.75
2022-09-15T02:56:15.681Z,19.02
2022-09-15T02:58:43.676Z,20.13
2022-09-15T03:01:15.519Z,20.33
2022-09-15T03:03:44.517Z,19.52
2022-09-15T03:06:21.126Z,20.42
2022-09-15T03:09:08.218Z,19.73
2022-09-15T03:11:36.321Z,19.30
2022-09-15T03:14:06.522Z,20.60
2022-09-15T03:16:35.232Z,20.08
2022-09-15T03:19:03.199Z,19.45
2022-09-15T03:21:30.692Z,21.00
2022-09-15T03:23:59.621Z,19.35
2022-09-15T03:26:27.026Z,17.60
2022-09-15T03:28:54.411Z,19.40
2022-09-15T03:31:21.911Z,21.15
2022-09-15T03:33:49.715Z,18.15
2022-09-15T03:36:17.103Z,21.08
2022-09-15T03:38:44.442Z,19.83
2022-09-15T03:41:12.627Z,19.88
2022-09-15T03:43:40.999Z,19.70
2022-09-15T03:46:10.468Z,20.48
2022-09-15T03:48:40.445Z,20.70
2022-09-15T03:51:10.466Z,19.55
2022-09-15T03:53:39.710Z,20.02
2022-09-15T03:56:30.169Z,19.77
2022-09-15T03:58:59.005Z,19.88
2022-09-15T04:01:26.370Z,19.52
2022-09-15T04:03:53.967Z,17.50
2022-09-15T04:06:22.590Z,18.60
2022-09-15T04:08:50.728Z,18.00
2022-09-15T04:11:20.429Z,18.70
2022-09-15T04:13:48.224Z,17.65
2022-09-15T04:16:18.950Z,18.58
2022-09-15T04:18:46.866Z,19.55
2022-09-15T04:21:16.716Z,19.10
2022-09-15T04:23:44.897Z,17.98
2022-09-15T04:26:31.195Z,18.83
2022-09-15T04:29:03.676Z,18.95
2022-09-15T04:31:33.143Z,18.83
2022-09-15T04:34:00.767Z,18.92
2022-09-15T04:36:29.556Z,17.95
2022-09-15T04:38:58.117Z,17.65
2022-09-15T04:41:26.620Z,18.25
2022-09-15T04:43:54.454Z,19.35
2022-09-15T04:46:22.183Z,18.50
2022-09-15T04:48:49.729Z,17.45
2022-09-15T04:51:20.179Z,18.02
2022-09-15T04:53:47.858Z,18.23
2022-09-15T04:56:17.724Z,18.27
2022-09-15T04:58:48.362Z,19.13
2022-09-15T05:01:19.667Z,19.38
2022-09-15T05:03:47.698Z,17.98
2022-09-15T05:06:17.640Z,19.20
2022-09-15T05:08:49.717Z,18.75
2022-09-15T05:11:17.670Z,18.30
2022-09-15T05:13:45.091Z,18.42
2022-09-15T05:16:15.471Z,18.58
2022-09-15T05:18:44.414Z,19.73
2022-09-15T05:21:13.820Z,19.58
2022-09-15T05:23:41.759Z,18.55
2022-09-15T05:26:12.820Z,18.60
2022-09-15T05:28:40.807Z,20.60
2022-09-15T05:31:11.594Z,20.02
2022-09-15T05:33:39.974Z,19.88
2022-09-15T05:36:07.691Z,19.92
2022-09-15T05:38:35.420Z,20.52
2022-09-15T05:41:08.161Z,19.65
2022-09-15T05:43:37.088Z,19.67
2022-09-15T05:46:05.346Z,20.38
2022-09-15T05:48:33.054Z,20.10
2022-09-15T05:51:00.694Z,20.23
2022-09-15T05:53:28.346Z,19.98
2022-09-15T05:55:59.661Z,19.80
2022-09-15T05:58:27.620Z,19.90
2022-09-15T06:00:55.554Z,19.70
2022-09-15T06:03:27.414Z,19.60
2022-09-15T06:06:05.239Z,19.85
2022-09-15T06:08:38.559Z,18.70
2022-09-15T06:11:16.081Z,19.58
2022-09-15T06:13:44.381Z,18.85
2022-09-15T06:16:19.212Z,20.05
2022-09-15T06:18:48.353Z,20.35
2022-09-15T06:21:25.535Z,19.02
2022-09-15T06:24:01.879Z,20.90
2022-09-15T06:26:29.843Z,20.83
2022-09-15T06:28:59.265Z,19.25
2022-09-15T06:31:27.926Z,19.73
2022-09-15T06:33:57.572Z,19.83
2022-09-15T06:36:29.584Z,21.92
2022-09-15T06:38:57.392Z,21.15
2022-09-15T06:41:25.174Z,21.25
2022-09-15T06:43:53.086Z,20.95
2022-09-15T06:46:24.156Z,21.13
2022-09-15T06:48:51.987Z,21.15
2022-09-15T06:51:22.287Z,20.23
2022-09-15T06:53:50.202Z,20.08
2022-09-15T06:56:22.462Z,18.77
2022-09-15T06:58:49.985Z,19.45
2022-09-15T07:01:25.949Z,20.30
2022-09-15T07:03:54.456Z,19.77
2022-09-15T07:06:22.414Z,17.55
2022-09-15T07:08:50.264Z,20.48
2022-09-15T07:11:18.431Z,18.27
2022-09-15T07:13:47.373Z,19.50
2022-09-15T07:16:15.761Z,19.45
2022-09-15T07:18:43.775Z,18.67
2022-09-15T07:21:14.523Z,19.33
2022-09-15T07:23:42.291Z,18.80
2022-09-15T07:26:22.036Z,16.90
2022-09-15T07:28:54.804Z,17.42
2022-09-15T07:31:24.548Z,18.08
2022-09-15T07:33:52.136Z,17.10
2022-09-15T07:36:19.573Z,16.73
2022-09-15T07:38:48.571Z,15.60
2022-09-15T07:41:23.746Z,16.73
2022-09-15T07:43:56.068Z,13.63
2022-09-15T07:46:25.036Z,13.00
2022-09-15T07:48:56.273Z,14.30
2022-09-15T07:51:25.557Z,13.07
2022-09-15T07:53:53.789Z,13.23
2022-09-15T07:56:23.050Z,13.85
2022-09-15T07:58:51.210Z,14.07
2022-09-15T08:01:19.689Z,13.10
2022-09-15T08:03:49.018Z,13.65
2022-09-15T08:06:18.789Z,14.07
2022-09-15T08:08:47.038Z,12.98
2022-09-15T08:11:19.584Z,13.02
2022-09-15T08:13:49.445Z,13.65
2022-09-15T08:16:25.576Z,12.02
2022-09-15T08:18:54.417Z,12.32
2022-09-15T08:21:22.981Z,11.90
2022-09-15T08:23:58.078Z,11.05
2022-09-15T08:26:27.385Z,11.70
2022-09-15T08:28:55.035Z,10.82
2022-09-15T08:31:24.268Z,11.32
2022-09-15T08:33:53.671Z,10.98
2022-09-15T08:36:21.399Z,8.82
2022-09-15T08:38:48.824Z,8.95
2022-09-15T08:41:39.598Z,7.32
2022-09-15T08:44:21.940Z,6.45
2022-09-15T08:47:04.054Z,6.05
2022-09-15T08:49:52.102Z,5.72
2022-09-15T08:52:30.287Z,5.47
2022-09-15T08:55:11.191Z,5.95
2022-09-15T08:57:38.525Z,5.80
2022-09-15T09:00:13.370Z,5.97
2022-09-15T09:02:53.995Z,5.55
2022-09-15T09:05:47.132Z,5.50
2022-09-15T09:08:36.750Z,5.28
2022-09-15T09:11:22.571Z,5.57
2022-09-15T09:14:00.074Z,4.88
2022-09-15T09:16:57.528Z,5.32
2022-09-15T09:19:43.423Z,5.68
2022-09-15T09:22:15.579Z,6.18
2022-09-15T09:24:45.658Z,6.20
2022-09-15T09:27:36.055Z,7.53
2022-09-15T09:30:12.596Z,7.00
2022-09-15T09:33:04.980Z,7.35
2022-09-15T09:35:43.241Z,6.00
2022-09-15T09:38:14.560Z,5.32
2022-09-15T09:40:43.072Z,5.50
2022-09-15T09:43:11.081Z,5.28
2022-09-15T09:45:38.966Z,5.25
2022-09-15T09:48:18.938Z,5.53
2022-09-15T09:50:47.275Z,6.07
2022-09-15T09:53:26.946Z,6.07
2022-09-15T09:55:56.903Z,4.93
2022-09-15T09:58:25.547Z,4.57
2022-09-15T10:00:53.445Z,4.45
2022-09-15T10:03:30.605Z,4.72
2022-09-15T10:06:07.153Z,4.10
2022-09-15T10:08:36.406Z,4.00
2022-09-15T10:11:10.275Z,3.50
2022-09-15T10:13:52.668Z,3.03
2022-09-15T10:16:20.513Z,2.58
2022-09-15T10:18:54.273Z,3.67
2022-09-15T10:21:25.849Z,1.95
2022-09-15T10:23:53.253Z,2.15
2022-09-15T10:26:33.659Z,3.38
2022-09-15T10:29:36.653Z,2.92
2022-09-15T10:32:24.982Z,3.70
2022-09-15T10:35:00.369Z,3.72
2022-09-15T10:37:36.287Z,2.63
2022-09-15T10:40:40.138Z,3.22
2022-09-15T10:43:17.557Z,2.85
2022-09-15T10:45:49.016Z,2.60
2022-09-15T10:48:36.874Z,2.90
2022-09-15T10:51:21.551Z,2.53
2022-09-15T10:54:11.671Z,2.40
2022-09-15T10:56:45.177Z,2.63
2022-09-15T10:59:32.520Z,1.85
2022-09-15T11:02:25.756Z,1.92
2022-09-15T11:05:39.254Z,1.98
2022-09-15T11:08:33.835Z,1.80
2022-09-15T11:11:07.069Z,1.90
2022-09-15T11:13:47.074Z,1.80
2022-09-15T11:16:29.465Z,1.70
2022-09-15T11:19:14.942Z,1.60
2022-09-15T11:21:53.950Z,1.25
2022-09-15T11:24:58.802Z,1.70
2022-09-15T11:27:32.084Z,1.30
2022-09-15T11:30:20.080Z,1.60
2022-09-15T11:33:10.217Z,1.55
2022-09-15T11:35:40.723Z,1.50
2022-09-15T11:38:18.149Z,1.30
2022-09-15T11:40:52.645Z,1.20
2022-09-15T11:43:41.090Z,1.55
2022-09-15T11:46:16.971Z,1.65
2022-09-15T11:48:55.382Z,2.30
2022-09-15T11:51:26.204Z,2.40
2022-09-15T11:54:15.882Z,1.95
2022-09-15T11:56:46.438Z,1.95
2022-09-15T12:00:05.359Z,2.35
2022-09-15T12:03:06.883Z,2.67
2022-09-15T12:05:43.152Z,2.35
2022-09-15T12:08:19.135Z,2.67
2022-09-15T12:10:52.164Z,2.38
2022-09-15T12:13:22.198Z,2.95
2022-09-15T12:15:50.323Z,2.60
2022-09-15T12:18:38.981Z,2.72
2022-09-15T12:21:23.506Z,3.50
2022-09-15T12:24:19.259Z,3.15
2022-09-15T12:26:47.390Z,2.67
2022-09-15T12:29:42.050Z,2.55
2022-09-15T12:32:24.051Z,3.67
2022-09-15T12:35:06.438Z,3.67
2022-09-15T12:37:55.855Z,3.42
2022-09-15T12:40:37.470Z,3.35
2022-09-15T12:43:20.848Z,3.03
2022-09-15T12:46:00.688Z,3.40
2022-09-15T12:48:32.409Z,2.63
2022-09-15T12:51:05.770Z,2.00
2022-09-15T12:53:58.255Z,2.22
2022-09-15T12:56:28.298Z,2.75
2022-09-15T12:58:56.246Z,2.25
2022-09-15T13:01:23.735Z,2.00
2022-09-15T13:03:51.206Z,1.90
2022-09-15T13:06:23.558Z,1.88
2022-09-15T13:09:15.105Z,1.90
2022-09-15T13:14:35.564Z,1.40
2022-09-15T13:17:13.152Z,1.42
2022-09-15T13:19:50.972Z,1.38
2022-09-15T13:22:40.922Z,1.45
2022-09-15T13:25:11.268Z,1.35
2022-09-15T13:27:41.839Z,1.30
2022-09-15T13:30:22.127Z,1.83
2022-09-15T13:33:23.957Z,1.77
2022-09-15T13:36:13.278Z,1.30
2022-09-15T13:38:52.906Z,1.45
2022-09-15T13:41:42.262Z,1.50
2022-09-15T13:44:52.745Z,2.20
2022-09-15T13:47:33.494Z,1.60
2022-09-15T13:50:22.232Z,1.40
2022-09-15T13:52:57.807Z,1.38
2022-09-15T13:55:28.465Z,1.35
2022-09-15T14:00:53.827Z,1.52
2022-09-15T14:03:27.319Z,1.15
2022-09-15T14:05:56.369Z,1.67
2022-09-15T14:08:30.240Z,1.52
2022-09-15T14:11:04.333Z,1.58
2022-09-15T14:13:31.776Z,1.00
2022-09-15T14:16:00.530Z,1.45
2022-09-15T14:18:28.618Z,1.02
2022-09-15T14:21:04.739Z,1.00
2022-09-15T14:23:32.675Z,1.73
2022-09-15T14:26:01.953Z,1.27
2022-09-15T14:28:34.954Z,2.03
2022-09-15T14:31:02.941Z,1.38
2022-09-15T14:33:38.407Z,1.10
2022-09-15T14:36:31.307Z,1.75
2022-09-15T14:39:19.073Z,2.05
2022-09-15T14:41:47.665Z,1.40
2022-09-15T14:47:31.917Z,1.80
2022-09-15T14:50:17.702Z,1.55
2022-09-15T14:52:51.788Z,2.22
2022-09-15T14:55:27.947Z,2.30
2022-09-15T14:58:27.187Z,2.17
2022-09-15T15:01:17.223Z,2.08
2022-09-15T15:04:09.919Z,1.95
2022-09-15T15:06:45.432Z,1.90
2022-09-15T15:09:24.116Z,2.08
2022-09-15T15:11:56.725Z,1.80
2022-09-15T15:14:24.587Z,1.70
2022-09-15T15:16:57.742Z,1.70
2022-09-15T15:19:34.702Z,1.80
2022-09-15T15:22:14.641Z,1.95
2022-09-15T15:24:48.055Z,2.17
2022-09-15T15:27:33.651Z,2.00
2022-09-15T15:30:31.846Z,1.90
2022-09-15T15:33:19.396Z,2.47
2022-09-15T15:35:59.562Z,2.47
2022-09-15T15:38:27.030Z,2.25
2022-09-15T15:41:03.325Z,1.95
2022-09-15T15:43:31.575Z,1.95
2022-09-15T15:46:04.467Z,2.22
2022-09-15T15:48:37.780Z,1.40
2022-09-15T15:51:07.576Z,1.48
2022-09-15T15:53:34.920Z,0.88
2022-09-15T15:56:02.403Z,1.02
2022-09-15T15:58:29.681Z,1.40
2022-09-15T16:00:57.151Z,1.40
2022-09-15T16:03:25.540Z,1.30
2022-09-15T16:05:56.878Z,1.25
2022-09-15T16:08:26.418Z,1.45
2022-09-15T16:10:55.284Z,1.20
2022-09-15T16:13:24.082Z,1.10
2022-09-15T16:15:53.713Z,1.35
2022-09-15T16:18:21.424Z,2.00
2022-09-15T16:20:48.682Z,1.20
2022-09-15T16:23:21.514Z,0.93
2022-09-15T16:26:02.982Z,1.40
2022-09-15T16:28:30.570Z,1.05
2022-09-15T16:30:59.067Z,1.30
2022-09-15T16:33:26.654Z,1.05
2022-09-15T16:36:08.307Z,1.15
2022-09-15T16:38:36.749Z,1.23
2022-09-15T16:41:10.376Z,1.52
2022-09-15T16:43:37.684Z,1.15
2022-09-15T16:46:06.514Z,1.20
2022-09-15T16:48:34.246Z,1.42
2022-09-15T16:51:23.014Z,1.58
2022-09-15T16:53:51.041Z,1.35
2022-09-15T16:56:18.906Z,1.45
2022-09-15T16:58:46.180Z,1.10
2022-09-15T17:01:21.502Z,1.10
2022-09-15T17:03:48.830Z,1.35
2022-09-15T17:06:17.953Z,1.45
2022-09-15T17:08:45.475Z,1.50
2022-09-15T17:11:16.871Z,1.40
2022-09-15T17:13:45.271Z,1.45
2022-09-15T17:16:14.905Z,1.10
2022-09-15T17:18:42.238Z,1.40
2022-09-15T17:21:17.485Z,1.17
2022-09-15T17:23:47.799Z,1.20
2022-09-15T17:26:21.771Z,1.52
2022-09-15T17:28:49.406Z,1.40
2022-09-15T17:31:19.404Z,1.42
2022-09-15T17:33:47.769Z,1.02
2022-09-15T17:36:15.711Z,0.95
2022-09-15T17:38:44.803Z,1.10
2022-09-15T17:41:17.358Z,1.25
2022-09-15T17:43:45.150Z,1.85
2022-09-15T17:46:12.920Z,0.90
2022-09-15T17:48:40.367Z,1.25
2022-09-15T17:51:12.083Z,1.17
2022-09-15T17:53:39.399Z,1.48
2022-09-15T17:56:07.003Z,1.20
2022-09-15T17:58:34.352Z,1.27
2022-09-15T18:01:04.177Z,1.55
2022-09-15T18:03:34.849Z,1.52
2022-09-15T18:06:07.845Z,1.23
2022-09-15T18:08:42.511Z,1.10
2022-09-15T18:13:37.981Z,1.10
2022-09-15T18:16:08.612Z,1.25
2022-09-15T18:18:35.996Z,1.40
2022-09-15T18:21:08.742Z,1.35
2022-09-15T18:23:37.449Z,1.30
2022-09-15T18:26:04.784Z,1.30
2022-09-15T18:28:32.095Z,1.77
2022-09-15T18:30:59.528Z,1.73
2022-09-15T18:33:26.892Z,1.40
2022-09-15T18:35:56.682Z,1.77
2022-09-15T18:38:24.672Z,1.15
2022-09-15T18:40:55.176Z,1.65
2022-09-15T18:43:25.034Z,1.50
2022-09-15T18:45:54.984Z,1.95
2022-09-15T18:48:22.342Z,1.35
2022-09-15T18:50:52.481Z,1.17
2022-09-15T18:53:19.780Z,1.40
2022-09-15T18:55:47.482Z,1.15
2022-09-15T18:58:14.772Z,1.83
2022-09-15T19:00:42.158Z,1.55
2022-09-15T19:03:09.678Z,1.83
2022-09-15T19:05:38.482Z,1.38
2022-09-15T19:08:08.234Z,1.27
2022-09-15T19:10:35.883Z,1.50
2022-09-15T19:13:03.259Z,1.20
2022-09-15T19:15:33.678Z,1.50
2022-09-15T19:18:01.460Z,1.40
2022-09-15T19:20:29.155Z,2.13
2022-09-15T19:22:57.955Z,1.55
2022-09-15T19:25:25.303Z,1.30
2022-09-15T19:27:52.568Z,1.10
2022-09-15T19:30:20.422Z,1.23
2022-09-15T19:32:47.706Z,1.65
2022-09-15T19:35:15.129Z,1.30
2022-09-15T19:37:43.126Z,0.98
2022-09-15T19:40:13.625Z,1.13
2022-09-15T19:42:42.833Z,1.08
2022-09-15T19:45:11.626Z,1.30
2022-09-15T19:47:39.648Z,1.15
2022-09-15T19:50:09.518Z,1.20
2022-09-15T19:52:36.923Z,2.03
2022-09-15T19:55:06.638Z,1.58
2022-09-15T19:57:34.011Z,1.35
2022-09-15T20:00:01.503Z,1.30
2022-09-15T20:02:31.745Z,1.88
2022-09-15T20:04:59.090Z,1.20
2022-09-15T20:07:26.410Z,1.38
2022-09-15T20:09:53.656Z,1.33
2022-09-15T20:14:53.203Z,1.10
2022-09-15T20:17:23.309Z,1.05
2022-09-15T20:19:51.082Z,1.23
2022-09-15T20:22:21.132Z,1.00
2022-09-15T20:24:48.607Z,1.08
2022-09-15T20:27:15.870Z,1.00
2022-09-15T20:29:43.213Z,1.40
2022-09-15T20:32:10.469Z,0.95
2022-09-15T20:34:37.861Z,1.35
2022-09-15T20:37:05.172Z,1.00
2022-09-15T20:39:32.630Z,0.90
2022-09-15T20:42:00.000Z,1.23
2022-09-15T20:44:27.256Z,1.23
2022-09-15T20:46:56.770Z,1.25
2022-09-15T20:49:24.083Z,1.00
2022-09-15T20:51:54.248Z,1.42
2022-09-15T20:54:21.687Z,1.25
2022-09-15T20:56:48.929Z,1.60
2022-09-15T20:59:16.445Z,1.10
2022-09-15T21:01:43.771Z,1.23
2022-09-15T21:04:11.322Z,1.10
2022-09-15T21:06:39.137Z,1.17
2022-09-15T21:09:07.249Z,1.40
2022-09-15T21:11:34.747Z,1.05
2022-09-15T21:14:02.424Z,0.93
2022-09-15T21:16:30.212Z,1.30
2022-09-15T21:18:58.707Z,1.73
2022-09-15T21:21:30.429Z,1.05
2022-09-15T21:24:03.553Z,1.23
2022-09-15T21:27:00.687Z,1.58
2022-09-15T21:29:29.031Z,2.50
2022-09-15T21:31:56.608Z,1.10
2022-09-15T21:34:27.978Z,2.08
2022-09-15T21:36:55.287Z,1.25
2022-09-15T21:39:23.255Z,1.40
2022-09-15T21:41:50.504Z,1.95
2022-09-15T21:44:18.149Z,1.38
2022-09-15T21:46:46.926Z,1.20
2022-09-15T21:49:14.647Z,1.15
2022-09-15T21:51:41.982Z,1.75
2022-09-15T21:54:09.977Z,1.23
2022-09-15T21:56:37.264Z,1.98
2022-09-15T21:59:08.118Z,1.35
2022-09-15T22:01:35.364Z,1.52
2022-09-15T22:04:05.517Z,1.00
2022-09-15T22:06:35.167Z,1.60
2022-09-15T22:09:06.220Z,1.58
2022-09-15T22:11:36.619Z,1.20
2022-09-15T22:14:09.515Z,1.63
2022-09-15T22:16:38.554Z,1.20
2022-09-15T22:19:07.196Z,1.60
2022-09-15T22:21:36.809Z,1.58
2022-09-15T22:24:05.716Z,1.23
2022-09-15T22:26:38.310Z,1.17
2022-09-15T22:29:06.499Z,1.45
2022-09-15T22:31:34.611Z,1.10
2022-09-15T22:34:02.390Z,0.98
2022-09-15T22:36:31.020Z,1.38
2022-09-15T22:39:04.254Z,1.42
2022-09-15T22:41:34.623Z,1.42
2022-09-15T22:44:03.126Z,1.50
2022-09-15T22:46:30.577Z,1.52
2022-09-15T22:48:58.167Z,1.92
2022-09-15T22:51:25.736Z,1.25
2022-09-15T22:53:54.789Z,1.10
2022-09-15T22:56:23.111Z,1.55
2022-09-15T22:58:50.497Z,1.60
2022-09-15T23:01:22.588Z,1.50
2022-09-15T23:04:00.647Z,1.35
2022-09-15T23:06:31.178Z,1.33
2022-09-15T23:09:01.206Z,1.98
2022-09-15T23:11:29.898Z,1.30
2022-09-15T23:13:57.936Z,1.58
2022-09-15T23:16:26.365Z,1.70
2022-09-15T23:18:54.395Z,1.17
2022-09-15T23:21:22.023Z,1.23
2022-09-15T23:23:53.200Z,1.48
2022-09-15T23:26:22.539Z,1.00
2022-09-15T23:28:49.904Z,2.17
2022-09-15T23:31:18.474Z,1.30
2022-09-15T23:33:46.368Z,1.15
2022-09-15T23:36:15.585Z,1.30
2022-09-15T23:38:44.866Z,1.75
2022-09-15T23:41:13.553Z,1.30
2022-09-15T23:43:40.836Z,1.42
2022-09-15T23:46:08.890Z,0.82
2022-09-15T23:48:36.527Z,1.58
2022-09-15T23:51:07.284Z,1.00
2022-09-15T23:53:35.251Z,1.20
2022-09-15T23:56:02.900Z,1.27
2022-09-15T23:58:30.420Z,1.30
